Annaba, Algeria
Current Conditions -  °F | °C
As of 12:30 AM on Saturday 25 Oct 2014 (Local Time) from DABB Reporting Station
Few Clouds Few Clouds  
Wind Chill: 64°   Ceiling: Unl
Heat Index: 64°   Visibility: 6mi
Dew Point: 59°   Wind: 8mph
Humidity: 83%   Direction: 250°WSW
Pressure: 30.03"   Gusts: NA
Location:  36.78°N, 7.6°E
Report Text: DABB 242330Z 25007KT 9999 FEW030 18/15 Q1017
Loading
Personal Weather Stations






























Interactive Weather Map
Tropical Storm Tracking
New forecast layout! Learn more

10-Day Weather Forecast

Advertisements
Track Severe Weather on mobile